Point, Louisiana
Current Conditions -  °F | °C
As of 8:35 AM on Sunday 23 Nov 2014 (Local Time) from KRSN Reporting Station
Moderate Rain Moderate Rain  
Wind Chill: 62°   Ceiling: 400
Heat Index: 62°   Visibility: 3mi
Dew Point: 62°   Wind: 3mph
Humidity: 100%   Direction: 350°N
Pressure: 29.57"   Gusts: NA
Location:  32.6533°N, 92.3683°W
Report Text: KRSN 231435Z AUTO 35003KT 3SM RA BKN004 OVC008 17/17 A2957 RMK AO2 P0002 T01670167
Loading
Personal Weather Stations






























Interactive Weather Map New forecast layout! Learn more

10-Day Weather Forecast

Advertisements
Track Severe Weather on mobile